Time;durP1;ratioP1;P1;durP2;ratioP2;P2;SDS_P1;SDS_P2;PMS_P1;PMS_P2;Temp;Humidity;BMP_temperature;BMP_pressure;BME280_temperature;BME280_humidity;BME280_pressure;Samples;Min_cycle;Max_cycle;Signal;HPM_P1;HPM_P2
2020/12/19 00:00:07;;;;;;;14.77;11.40;;;5.30;99.90;;;;;;4971361;28;20650;-78
2020/12/19 00:02:32;;;;;;;16.30;11.87;;;5.40;99.90;;;;;;4970636;28;20198;-78
2020/12/19 00:04:58;;;;;;;16.97;12.10;;;5.50;99.90;;;;;;4968551;28;20207;-77
2020/12/19 00:07:24;;;;;;;18.53;12.20;;;5.60;99.90;;;;;;4962834;28;20553;-77
2020/12/19 00:09:50;;;;;;;15.63;11.83;;;5.70;99.90;;;;;;4971387;28;20498;-77
2020/12/19 00:12:20;;;;;;;15.77;11.80;;;5.70;99.90;;;;;;4971683;28;20655;-77
2020/12/19 00:14:46;;;;;;;15.35;11.40;;;5.80;99.90;;;;;;4970819;28;20211;-77
2020/12/19 00:17:11;;;;;;;16.40;11.93;;;5.90;99.90;;;;;;4969244;28;20230;-77
2020/12/19 00:19:37;;;;;;;14.73;11.30;;;5.90;99.90;;;;;;4971602;28;20211;-77
2020/12/19 00:22:05;;;;;;;16.20;11.73;;;5.90;99.90;;;;;;4971586;28;20298;-77
2020/12/19 00:24:31;;;;;;;20.30;12.85;;;6.00;99.90;;;;;;4968207;28;20223;-78
2020/12/19 00:26:57;;;;;;;15.17;11.40;;;6.10;99.90;;;;;;4959814;28;20206;-79
2020/12/19 00:29:22;;;;;;;16.63;12.07;;;6.20;99.90;;;;;;4974040;28;20337;-78
2020/12/19 00:31:48;;;;;;;14.10;12.60;;;6.20;99.90;;;;;;4975470;28;20221;-78
2020/12/19 00:34:14;;;;;;;17.97;12.20;;;6.30;99.90;;;;;;4969911;28;20187;-78
2020/12/19 00:36:39;;;;;;;14.97;12.10;;;6.30;99.90;;;;;;4966196;28;20189;-78
2020/12/19 00:39:06;;;;;;;14.30;12.80;;;6.30;99.90;;;;;;4974681;28;20263;-79
2020/12/19 00:41:32;;;;;;;15.02;12.05;;;6.30;99.90;;;;;;4975052;28;20709;-78
2020/12/19 00:43:58;;;;;;;16.83;11.65;;;6.40;99.90;;;;;;4975014;28;20230;-78
2020/12/19 00:46:24;;;;;;;17.97;13.30;;;6.30;99.90;;;;;;4962265;28;20683;-78
2020/12/19 00:48:50;;;;;;;14.30;10.50;;;6.30;99.90;;;;;;4984882;28;20286;-78
2020/12/19 00:51:16;;;;;;;16.77;12.85;;;6.30;99.90;;;;;;4973823;28;20270;-78
2020/12/19 00:53:42;;;;;;;14.13;11.40;;;6.30;99.90;;;;;;4975264;28;20538;-78
2020/12/19 00:56:22;;;;;;;14.93;11.60;;;6.30;99.90;;;;;;4968493;28;20215;-78
2020/12/19 00:58:49;;;;;;;16.45;12.27;;;6.20;99.90;;;;;;4969679;28;20681;-78
2020/12/19 01:01:15;;;;;;;13.20;10.73;;;6.20;99.90;;;;;;4972806;28;20211;-78
2020/12/19 01:03:42;;;;;;;16.17;12.32;;;6.30;99.90;;;;;;4974940;28;20187;-78
2020/12/19 01:06:08;;;;;;;14.20;11.50;;;6.30;99.90;;;;;;4963739;28;20219;-78
2020/12/19 01:08:34;;;;;;;13.52;11.18;;;6.30;99.90;;;;;;4974599;28;20666;-77
2020/12/19 01:11:00;;;;;;;14.50;10.65;;;6.50;99.90;;;;;;4972918;28;20210;-78
2020/12/19 01:13:26;;;;;;;13.07;11.50;;;6.40;99.90;;;;;;4974385;28;20171;-79
2020/12/19 01:15:52;;;;;;;14.13;10.47;;;6.50;99.90;;;;;;4972119;28;20215;-78
2020/12/19 01:18:18;;;;;;;16.05;10.70;;;6.50;99.90;;;;;;4980013;28;20543;-78
2020/12/19 01:20:44;;;;;;;14.07;10.97;;;6.50;99.90;;;;;;4972486;28;20203;-78
2020/12/19 01:23:10;;;;;;;14.63;11.10;;;6.50;99.90;;;;;;4974253;28;20555;-78
2020/12/19 01:25:35;;;;;;;14.40;10.67;;;6.40;99.90;;;;;;4972774;28;20262;-78
2020/12/19 01:28:01;;;;;;;14.40;11.37;;;6.40;99.90;;;;;;4972171;28;20802;-77
2020/12/19 01:30:27;;;;;;;12.73;10.00;;;6.30;99.90;;;;;;4972295;28;20213;-78
2020/12/19 01:32:52;;;;;;;14.43;10.87;;;6.30;99.90;;;;;;4974524;28;20199;-78
2020/12/19 01:35:18;;;;;;;14.80;10.73;;;6.20;99.90;;;;;;4960207;28;20219;-77
2020/12/19 01:37:44;;;;;;;13.17;10.23;;;6.20;99.90;;;;;;4962155;28;20457;-77
2020/12/19 01:40:10;;;;;;;13.75;10.07;;;6.10;99.90;;;;;;4973679;28;20270;-77
2020/12/19 01:42:36;;;;;;;12.63;9.30;;;6.00;99.90;;;;;;4974086;28;20674;-77
2020/12/19 01:45:03;;;;;;;12.40;9.90;;;5.90;99.90;;;;;;4962892;28;20270;-77
2020/12/19 01:47:32;;;;;;;17.58;10.70;;;5.80;99.90;;;;;;4963159;28;20223;-78
2020/12/19 01:49:58;;;;;;;11.50;9.60;;;5.90;99.90;;;;;;4972008;28;20223;-77
2020/12/19 01:52:26;;;;;;;12.95;10.23;;;6.00;99.90;;;;;;4973867;28;20203;-77
2020/12/19 01:54:52;;;;;;;11.73;9.13;;;6.00;99.90;;;;;;4973651;28;20224;-77
2020/12/19 01:57:21;;;;;;;15.30;10.80;;;5.90;99.90;;;;;;4959589;28;20191;-78
2020/12/19 01:59:46;;;;;;;16.77;10.98;;;5.90;99.90;;;;;;4972178;28;20288;-78
2020/12/19 02:02:16;;;;;;;15.00;10.47;;;6.00;99.90;;;;;;4973931;28;20282;-77
2020/12/19 02:04:42;;;;;;;13.07;9.40;;;5.90;99.90;;;;;;4964347;28;20773;-77
2020/12/19 02:07:08;;;;;;;10.30;8.80;;;5.80;99.90;;;;;;4967011;28;20174;-77
2020/12/19 02:09:38;;;;;;;15.17;10.80;;;5.70;99.90;;;;;;4972888;28;20234;-77
2020/12/19 02:12:05;;;;;;;11.90;9.77;;;5.50;99.90;;;;;;4973409;28;20269;-77
2020/12/19 02:14:32;;;;;;;11.05;9.00;;;5.30;99.90;;;;;;4968679;28;20215;-77
2020/12/19 02:17:00;;;;;;;10.32;8.82;;;5.30;99.90;;;;;;4958727;28;20199;-77
2020/12/19 02:19:27;;;;;;;13.43;8.77;;;5.30;99.90;;;;;;4972390;28;20302;-77
2020/12/19 02:21:53;;;;;;;11.70;7.25;;;5.20;99.90;;;;;;4971803;28;20193;-77
2020/12/19 02:24:19;;;;;;;10.40;7.68;;;5.10;99.90;;;;;;4972914;28;20214;-77
2020/12/19 02:26:49;;;;;;;13.17;9.77;;;5.10;99.90;;;;;;4965318;28;20175;-78
2020/12/19 02:29:15;;;;;;;10.60;9.50;;;4.90;99.90;;;;;;4971208;28;20199;-77
2020/12/19 02:31:42;;;;;;;11.43;8.95;;;4.80;99.90;;;;;;4971962;28;20274;-77
2020/12/19 02:34:08;;;;;;;11.15;8.77;;;4.90;99.90;;;;;;4972683;28;20182;-77
2020/12/19 02:36:34;;;;;;;11.55;8.77;;;4.80;99.90;;;;;;4968051;28;20285;-77
2020/12/19 02:39:00;;;;;;;11.55;8.40;;;4.80;99.90;;;;;;4972341;28;20175;-78
2020/12/19 02:41:26;;;;;;;11.13;8.90;;;4.80;99.90;;;;;;5004063;28;20693;-78
2020/12/19 02:43:56;;;;;;;12.07;9.57;;;4.70;99.90;;;;;;4972995;28;20492;-77
2020/12/19 02:46:23;;;;;;;10.68;9.02;;;4.70;99.90;;;;;;4968998;28;20463;-78
2020/12/19 02:48:49;;;;;;;12.90;9.70;;;4.70;99.90;;;;;;4971789;28;20454;-77
2020/12/19 02:51:15;;;;;;;12.68;7.63;;;4.60;99.90;;;;;;4971687;28;20211;-78
2020/12/19 02:53:42;;;;;;;10.23;8.43;;;4.60;99.90;;;;;;4972704;28;20581;-77
2020/12/19 02:56:07;;;;;;;9.48;8.48;;;4.60;99.90;;;;;;4966582;28;20246;-77
2020/12/19 02:58:33;;;;;;;10.73;8.17;;;4.70;99.90;;;;;;4972954;28;20218;-77
2020/12/19 03:00:59;;;;;;;10.70;7.37;;;4.60;99.90;;;;;;4971029;28;20988;-77
2020/12/19 03:03:25;;;;;;;9.23;7.43;;;4.60;99.90;;;;;;4972564;28;20523;-78
2020/12/19 03:05:51;;;;;;;8.07;6.70;;;4.60;99.90;;;;;;4959690;28;20242;-78
2020/12/19 03:08:16;;;;;;;9.80;7.40;;;4.50;99.90;;;;;;4962933;28;20198;-77
2020/12/19 03:10:42;;;;;;;9.83;8.43;;;4.40;99.90;;;;;;4972252;28;20207;-77
2020/12/19 03:13:08;;;;;;;10.90;7.47;;;4.40;99.90;;;;;;4972211;28;20554;-77
2020/12/19 03:15:34;;;;;;;7.90;6.40;;;4.40;99.90;;;;;;4965342;28;20752;-77
2020/12/19 03:17:59;;;;;;;10.87;8.17;;;4.40;99.90;;;;;;4970264;28;20187;-77
2020/12/19 03:20:25;;;;;;;9.87;8.20;;;4.40;99.90;;;;;;4971632;28;20261;-77
2020/12/19 03:22:51;;;;;;;10.07;7.30;;;4.40;99.90;;;;;;4972031;28;20261;-78
2020/12/19 03:25:17;;;;;;;9.90;7.93;;;4.40;99.90;;;;;;4971653;28;20999;-78
2020/12/19 03:27:42;;;;;;;10.33;8.23;;;4.40;99.90;;;;;;4969473;28;20182;-78
2020/12/19 03:30:08;;;;;;;10.10;8.57;;;4.50;99.90;;;;;;4971304;28;20227;-78
2020/12/19 03:32:34;;;;;;;11.10;8.80;;;4.70;99.90;;;;;;4971024;28;20230;-77
2020/12/19 03:35:05;;;;;;;10.00;7.50;;;5.10;99.90;;;;;;4963355;28;20838;-77
2020/12/19 03:37:33;;;;;;;12.77;9.10;;;5.30;99.90;;;;;;4961220;28;20199;-78
2020/12/19 03:40:00;;;;;;;12.52;8.63;;;5.40;99.90;;;;;;4970657;28;20215;-78
2020/12/19 03:42:25;;;;;;;12.48;8.20;;;5.50;99.90;;;;;;4972491;28;20195;-78
2020/12/19 03:44:51;;;;;;;11.43;8.70;;;5.60;99.90;;;;;;4960399;28;20219;-78
2020/12/19 03:47:17;;;;;;;9.47;8.20;;;5.70;99.90;;;;;;4968018;28;20219;-77
2020/12/19 03:49:43;;;;;;;11.77;8.90;;;5.70;99.90;;;;;;4972139;28;20277;-77
2020/12/19 03:52:08;;;;;;;10.57;8.67;;;5.80;99.90;;;;;;4972065;28;20199;-78
2020/12/19 03:54:34;;;;;;;12.17;8.93;;;5.70;99.90;;;;;;4969357;28;20454;-77
2020/12/19 03:57:00;;;;;;;8.93;7.07;;;5.80;99.90;;;;;;4962227;28;20184;-77
2020/12/19 03:59:26;;;;;;;8.60;7.70;;;5.90;99.90;;;;;;4974321;28;20218;-78
2020/12/19 04:01:51;;;;;;;8.67;7.77;;;5.80;99.90;;;;;;4975885;28;20199;-78
2020/12/19 04:04:17;;;;;;;10.93;8.30;;;6.00;99.90;;;;;;4971942;28;20190;-77
2020/12/19 04:06:42;;;;;;;10.10;7.60;;;5.90;99.90;;;;;;4965349;28;20258;-78
2020/12/19 04:09:08;;;;;;;10.70;8.47;;;5.90;99.90;;;;;;4972263;28;20200;-78
2020/12/19 04:11:34;;;;;;;12.30;8.03;;;5.80;99.90;;;;;;4975692;28;20265;-77
2020/12/19 04:13:59;;;;;;;9.60;7.93;;;5.90;99.90;;;;;;4975470;28;20247;-78
2020/12/19 04:16:25;;;;;;;10.20;8.40;;;6.00;99.90;;;;;;4970878;28;20185;-77
2020/12/19 04:18:51;;;;;;;9.80;8.43;;;6.10;99.90;;;;;;4975910;28;20207;-77
2020/12/19 04:21:16;;;;;;;9.60;8.37;;;6.00;99.90;;;;;;4974528;28;20218;-78
2020/12/19 04:23:42;;;;;;;8.13;7.20;;;5.90;99.90;;;;;;4975746;28;20198;-77
2020/12/19 04:26:08;;;;;;;9.63;8.40;;;5.90;99.90;;;;;;4964097;28;20207;-77
2020/12/19 04:28:33;;;;;;;8.30;7.23;;;5.80;99.90;;;;;;4999385;28;20203;-77
2020/12/19 04:30:59;;;;;;;14.30;8.00;;;5.80;99.90;;;;;;4974812;28;20285;-78
2020/12/19 04:33:25;;;;;;;9.17;8.10;;;5.70;99.90;;;;;;4975249;28;20241;-77
2020/12/19 04:35:54;;;;;;;8.70;7.60;;;5.60;99.90;;;;;;4963910;28;20218;-78
2020/12/19 04:38:19;;;;;;;8.23;7.35;;;5.60;99.90;;;;;;4973990;28;20175;-77
2020/12/19 04:40:46;;;;;;;11.40;8.00;;;5.60;99.90;;;;;;4975038;28;20215;-78
2020/12/19 04:43:17;;;;;;;8.23;7.43;;;5.50;99.90;;;;;;4975311;28;20768;-78
2020/12/19 04:45:48;;;;;;;8.80;7.90;;;5.40;99.90;;;;;;4973955;28;20563;-78
2020/12/19 04:48:17;;;;;;;9.18;8.10;;;5.30;99.90;;;;;;4979954;28;20175;-77
2020/12/19 04:50:45;;;;;;;10.77;8.48;;;5.30;99.90;;;;;;4961972;28;20298;-77
2020/12/19 04:53:15;;;;;;;9.35;7.80;;;5.20;99.90;;;;;;4971327;28;20554;-77
2020/12/19 04:55:41;;;;;;;9.50;7.25;;;5.20;99.90;;;;;;4967722;28;20207;-77
2020/12/19 04:58:12;;;;;;;11.90;8.70;;;5.10;99.90;;;;;;4964261;28;20175;-78
2020/12/19 05:00:38;;;;;;;13.02;8.55;;;5.10;99.90;;;;;;4973816;28;20215;-77
2020/12/19 05:03:04;;;;;;;11.40;8.85;;;5.10;99.90;;;;;;4974944;28;20302;-78
2020/12/19 05:05:30;;;;;;;9.47;8.47;;;5.10;99.90;;;;;;4966394;28;20733;-78
2020/12/19 05:07:55;;;;;;;13.80;9.77;;;5.20;99.90;;;;;;4963861;28;20182;-78
2020/12/19 05:10:22;;;;;;;9.00;7.97;;;5.30;99.90;;;;;;4973938;28;20262;-77
2020/12/19 05:12:52;;;;;;;12.02;8.98;;;5.30;99.90;;;;;;4973900;28;20195;-78
2020/12/19 05:15:19;;;;;;;11.65;9.55;;;5.20;99.90;;;;;;4969722;28;20262;-77
2020/12/19 05:17:52;;;;;;;13.93;10.50;;;5.20;99.90;;;;;;4963372;28;20213;-77
2020/12/19 05:20:23;;;;;;;14.25;9.77;;;5.10;99.90;;;;;;4974295;28;20744;-77
2020/12/19 05:22:50;;;;;;;15.02;10.45;;;5.00;99.90;;;;;;4972075;28;20206;-77
2020/12/19 05:25:17;;;;;;;12.23;9.55;;;5.00;99.90;;;;;;4974079;28;20233;-77
2020/12/19 05:27:47;;;;;;;15.55;9.93;;;5.10;99.90;;;;;;4968673;28;20222;-78
2020/12/19 05:30:15;;;;;;;15.40;11.77;;;5.00;99.90;;;;;;4974108;28;20211;-78
2020/12/19 05:32:51;;;;;;;15.57;10.73;;;5.00;99.90;;;;;;4974266;28;20179;-77
2020/12/19 05:35:19;;;;;;;15.63;11.55;;;5.00;99.90;;;;;;4965529;28;20299;-78
2020/12/19 05:38:04;;;;;;;14.75;11.35;;;5.00;99.90;;;;;;4968623;28;20206;-78
2020/12/19 05:40:31;;;;;;;13.98;10.68;;;5.10;99.90;;;;;;4973868;28;20210;-77
2020/12/19 05:42:58;;;;;;;15.80;10.80;;;5.20;99.90;;;;;;4973985;28;20183;-77
2020/12/19 05:45:25;;;;;;;15.50;11.05;;;5.30;99.90;;;;;;4970713;28;20211;-78
2020/12/19 05:47:51;;;;;;;18.38;12.55;;;5.40;99.90;;;;;;4973656;28;20634;-78
2020/12/19 05:50:18;;;;;;;16.40;11.43;;;5.40;99.90;;;;;;4973261;28;20227;-78
2020/12/19 05:52:44;;;;;;;15.70;11.63;;;5.40;99.90;;;;;;4976357;28;20461;-77
2020/12/19 05:55:12;;;;;;;15.10;11.40;;;5.50;99.90;;;;;;4966424;28;20203;-77
2020/12/19 05:57:39;;;;;;;15.68;12.07;;;5.60;99.90;;;;;;4968486;28;20438;-78
2020/12/19 06:00:15;;;;;;;18.17;11.65;;;5.60;99.90;;;;;;4971748;28;20218;-77
2020/12/19 06:02:42;;;;;;;15.90;12.43;;;5.70;99.90;;;;;;4972531;28;20194;-78
2020/12/19 06:05:10;;;;;;;22.23;12.80;;;5.80;99.90;;;;;;4969628;28;20776;-77
2020/12/19 06:07:47;;;;;;;22.70;14.18;;;5.80;99.90;;;;;;4965831;28;20724;-78
2020/12/19 06:10:17;;;;;;;17.08;11.75;;;5.80;99.90;;;;;;4973372;28;20219;-78
2020/12/19 06:13:03;;;;;;;18.48;12.60;;;5.80;99.90;;;;;;4973287;28;20261;-78
2020/12/19 06:15:33;;;;;;;18.35;13.85;;;5.70;99.90;;;;;;4967791;28;20311;-78
2020/12/19 06:18:13;;;;;;;16.63;11.75;;;5.70;99.90;;;;;;4966582;28;20210;-77
2020/12/19 06:20:39;;;;;;;17.58;12.63;;;5.60;99.90;;;;;;4973038;28;20247;-78
2020/12/19 06:23:14;;;;;;;16.20;13.40;;;5.40;99.90;;;;;;4973063;28;20231;-78
2020/12/19 06:25:44;;;;;;;18.55;13.07;;;5.40;99.90;;;;;;4964941;28;20250;-77
2020/12/19 06:28:12;;;;;;;19.23;13.60;;;5.30;99.90;;;;;;4960272;28;20172;-77
2020/12/19 06:30:38;;;;;;;18.83;13.25;;;5.30;99.90;;;;;;4972701;28;20214;-77
2020/12/19 06:33:12;;;;;;;16.35;12.73;;;5.30;99.90;;;;;;4973322;28;20308;-77
2020/12/19 06:35:46;;;;;;;17.38;13.35;;;5.20;99.90;;;;;;4970764;28;20689;-77
2020/12/19 06:38:12;;;;;;;19.42;13.80;;;5.20;99.90;;;;;;4955271;28;20182;-78
2020/12/19 06:40:39;;;;;;;19.23;13.00;;;5.20;99.90;;;;;;4962747;28;20195;-78
2020/12/19 06:43:13;;;;;;;19.83;13.77;;;5.10;99.90;;;;;;4973232;28;20673;-78
2020/12/19 06:45:39;;;;;;;19.02;13.98;;;5.10;99.90;;;;;;4969432;28;20732;-77
2020/12/19 06:48:32;;;;;;;18.45;13.90;;;5.20;99.90;;;;;;4958886;28;20179;-77
2020/12/19 06:51:00;;;;;;;17.17;13.23;;;5.10;99.90;;;;;;4965520;28;20211;-78
2020/12/19 06:53:27;;;;;;;16.40;13.13;;;5.10;99.90;;;;;;4973540;28;20226;-78
2020/12/19 06:55:53;;;;;;;19.83;14.40;;;5.10;99.90;;;;;;4962333;28;20293;-79
2020/12/19 06:58:29;;;;;;;18.57;12.57;;;5.00;99.90;;;;;;4968822;28;20624;-79
2020/12/19 07:00:55;;;;;;;20.10;11.48;;;5.10;99.90;;;;;;4972386;28;20224;-79
2020/12/19 07:03:41;;;;;;;15.20;12.50;;;5.10;99.90;;;;;;4971126;28;20617;-79
2020/12/19 07:06:14;;;;;;;16.17;12.18;;;5.10;99.90;;;;;;4962802;28;20459;-79
2020/12/19 07:08:42;;;;;;;15.07;12.73;;;5.00;99.90;;;;;;4970511;28;20653;-79
2020/12/19 07:11:38;;;;;;;15.95;12.27;;;5.00;99.90;;;;;;4970523;28;20207;-79
2020/12/19 07:14:13;;;;;;;16.40;12.35;;;4.90;99.90;;;;;;4971861;28;20630;-78
2020/12/19 07:16:43;;;;;;;17.15;13.43;;;5.00;99.90;;;;;;4965497;28;20546;-79
2020/12/19 07:19:24;;;;;;;15.80;11.70;;;4.90;99.90;;;;;;4972055;28;20194;-79
2020/12/19 07:21:51;;;;;;;17.45;12.00;;;4.80;99.90;;;;;;4972098;28;20199;-79
2020/12/19 07:24:16;;;;;;;17.70;12.10;;;4.80;99.90;;;;;;4968698;28;20182;-78
2020/12/19 07:26:42;;;;;;;18.03;13.37;;;4.70;99.90;;;;;;4962671;28;20203;-79
2020/12/19 07:29:15;;;;;;;15.50;12.43;;;4.70;99.90;;;;;;4966074;28;20195;-78
2020/12/19 07:31:52;;;;;;;16.05;12.55;;;4.70;99.90;;;;;;4971820;28;20540;-80
2020/12/19 07:34:19;;;;;;;16.15;11.90;;;4.60;99.90;;;;;;4967454;28;20171;-79
2020/12/19 07:36:46;;;;;;;16.50;13.38;;;4.60;99.90;;;;;;4967165;28;20186;-78
2020/12/19 07:39:13;;;;;;;16.58;13.35;;;4.60;99.90;;;;;;4978224;28;20171;-77
2020/12/19 07:41:40;;;;;;;17.30;12.90;;;4.50;99.90;;;;;;4977182;28;20688;-77
2020/12/19 07:44:18;;;;;;;16.88;12.35;;;4.50;99.90;;;;;;4977975;28;20215;-77
2020/12/19 07:46:55;;;;;;;16.80;12.35;;;4.50;99.90;;;;;;4970876;28;20198;-78
2020/12/19 07:49:33;;;;;;;16.65;11.90;;;4.50;99.90;;;;;;4966245;28;20223;-78
2020/12/19 07:52:10;;;;;;;16.30;12.43;;;4.50;99.90;;;;;;4976388;28;20220;-79
2020/12/19 07:54:37;;;;;;;16.45;12.82;;;4.50;99.90;;;;;;4966441;28;20252;-78
2020/12/19 07:57:04;;;;;;;15.70;13.85;;;4.50;99.90;;;;;;4973327;28;20287;-77
2020/12/19 07:59:30;;;;;;;16.83;14.02;;;4.50;99.90;;;;;;4977409;28;20582;-78
2020/12/19 08:02:00;;;;;;;17.60;14.17;;;4.50;99.90;;;;;;4976680;28;20191;-77
2020/12/19 08:04:26;;;;;;;18.40;13.02;;;4.50;99.90;;;;;;4979593;28;20648;-77
2020/12/19 08:06:51;;;;;;;19.67;13.20;;;4.50;99.90;;;;;;4963852;28;20254;-77
2020/12/19 08:09:20;;;;;;;18.30;12.83;;;4.70;99.90;;;;;;4977289;28;20234;-78
2020/12/19 08:11:48;;;;;;;15.27;12.93;;;4.70;99.90;;;;;;4976065;28;20203;-79
2020/12/19 08:14:21;;;;;;;17.67;12.40;;;4.70;99.90;;;;;;4972544;28;20168;-78
2020/12/19 08:16:48;;;;;;;17.17;11.85;;;4.80;99.90;;;;;;4968892;28;20191;-79
2020/12/19 08:19:47;;;;;;;18.48;13.23;;;4.70;99.90;;;;;;4987193;28;20179;-78
2020/12/19 08:22:14;;;;;;;17.35;13.05;;;4.70;99.90;;;;;;4969809;28;20238;-77
2020/12/19 08:24:44;;;;;;;19.40;13.40;;;4.70;99.90;;;;;;4977010;28;20227;-78
2020/12/19 08:27:44;;;;;;;21.50;15.32;;;4.80;99.90;;;;;;4971584;28;20183;-78
2020/12/19 08:30:25;;;;;;;21.08;14.88;;;4.80;99.90;;;;;;4977133;28;20236;-78
2020/12/19 08:33:00;;;;;;;22.35;15.43;;;4.80;99.90;;;;;;4977751;28;20205;-79
2020/12/19 08:35:43;;;;;;;17.98;14.00;;;4.90;99.90;;;;;;4960641;28;20203;-79
2020/12/19 08:38:11;;;;;;;16.95;14.05;;;5.00;99.90;;;;;;5004066;28;20650;-78
2020/12/19 08:40:40;;;;;;;24.98;16.08;;;5.00;99.90;;;;;;4974738;28;20218;-79
2020/12/19 08:43:08;;;;;;;20.35;16.40;;;5.00;99.90;;;;;;4976545;28;20209;-78
2020/12/19 08:45:42;;;;;;;20.52;14.85;;;5.10;99.90;;;;;;4976017;28;20211;-77
2020/12/19 08:48:25;;;;;;;22.17;16.15;;;5.20;99.90;;;;;;4969037;28;20266;-78
2020/12/19 08:50:52;;;;;;;21.08;14.45;;;5.30;99.90;;;;;;4973590;28;20210;-78
2020/12/19 08:53:28;;;;;;;20.48;16.27;;;5.40;99.90;;;;;;4974328;28;20771;-77
2020/12/19 08:55:55;;;;;;;17.05;14.10;;;5.50;99.90;;;;;;4965786;28;20654;-77
2020/12/19 08:58:22;;;;;;;18.40;14.60;;;5.50;99.90;;;;;;4962718;28;20175;-78
2020/12/19 09:00:48;;;;;;;20.98;15.32;;;5.60;99.90;;;;;;4974090;28;20218;-78
2020/12/19 09:03:14;;;;;;;19.75;13.60;;;5.70;99.90;;;;;;4973963;28;20187;-78
2020/12/19 09:05:42;;;;;;;20.40;15.93;;;5.80;99.90;;;;;;4970881;28;20567;-78
2020/12/19 09:08:10;;;;;;;20.45;16.15;;;5.80;99.90;;;;;;4968091;28;20647;-78
2020/12/19 09:10:40;;;;;;;22.15;15.20;;;5.90;99.90;;;;;;4973567;28;20619;-78
2020/12/19 09:13:18;;;;;;;18.48;14.20;;;6.00;99.90;;;;;;4974090;28;20191;-78
2020/12/19 09:15:44;;;;;;;20.05;14.30;;;6.10;99.90;;;;;;4970243;28;20203;-79
2020/12/19 09:18:30;;;;;;;21.08;15.80;;;6.20;99.90;;;;;;4968939;28;20178;-78
2020/12/19 09:20:57;;;;;;;17.40;14.13;;;6.30;99.90;;;;;;4973685;28;20203;-78
2020/12/19 09:23:24;;;;;;;20.00;14.65;;;6.30;99.90;;;;;;4972670;28;20223;-78
2020/12/19 09:25:53;;;;;;;20.10;14.48;;;6.40;99.90;;;;;;4970234;28;20215;-78
2020/12/19 09:28:19;;;;;;;21.67;15.25;;;6.50;99.90;;;;;;4955119;29;20191;-78
2020/12/19 09:30:45;;;;;;;15.40;13.35;;;6.60;99.90;;;;;;4954626;28;20208;-79
2020/12/19 09:33:11;;;;;;;19.13;14.30;;;6.70;99.90;;;;;;4953434;29;20251;-78
2020/12/19 09:35:36;;;;;;;19.58;14.60;;;6.80;99.90;;;;;;4984672;28;20303;-78
2020/12/19 09:38:03;;;;;;;18.63;13.07;;;6.90;99.90;;;;;;4954400;28;20258;-77
2020/12/19 09:40:29;;;;;;;17.00;14.90;;;6.90;99.90;;;;;;4954115;28;20579;-77
2020/12/19 09:42:55;;;;;;;19.00;13.55;;;7.10;99.90;;;;;;4965935;28;20195;-78
2020/12/19 09:45:21;;;;;;;16.95;14.00;;;7.10;99.90;;;;;;4970727;28;20203;-78
2020/12/19 09:47:47;;;;;;;16.47;13.17;;;7.30;99.90;;;;;;4966488;28;20179;-77
2020/12/19 09:50:14;;;;;;;13.50;12.07;;;7.40;99.90;;;;;;4973064;28;20233;-78
2020/12/19 09:52:40;;;;;;;16.70;13.32;;;7.50;99.90;;;;;;4974620;28;20203;-78
2020/12/19 09:55:07;;;;;;;16.80;12.75;;;7.60;99.90;;;;;;4968654;28;20551;-78
2020/12/19 09:57:33;;;;;;;13.00;10.70;;;7.90;99.90;;;;;;4962501;28;20185;-77
2020/12/19 09:59:59;;;;;;;15.67;12.00;;;7.90;99.90;;;;;;4972295;28;20286;-78
2020/12/19 10:02:25;;;;;;;12.27;10.90;;;7.90;99.90;;;;;;4973498;28;20442;-79
2020/12/19 10:04:51;;;;;;;10.43;8.83;;;8.00;99.90;;;;;;4969780;28;20228;-78
2020/12/19 10:07:18;;;;;;;12.43;9.37;;;8.30;99.90;;;;;;4971108;28;20438;-77
2020/12/19 10:09:46;;;;;;;9.63;7.55;;;8.50;99.90;;;;;;4972644;28;21017;-78
2020/12/19 10:12:12;;;;;;;9.65;7.80;;;8.80;99.90;;;;;;4972130;28;20661;-78
2020/12/19 10:14:38;;;;;;;6.53;5.93;;;8.80;99.90;;;;;;4969847;28;20271;-78
2020/12/19 10:17:03;;;;;;;6.13;5.53;;;9.10;99.90;;;;;;4972124;28;20176;-77
2020/12/19 10:19:29;;;;;;;6.03;4.77;;;9.50;99.90;;;;;;4971246;28;20247;-77
2020/12/19 10:21:55;;;;;;;5.13;4.63;;;9.70;99.90;;;;;;4970970;28;20218;-78
2020/12/19 10:24:21;;;;;;;6.90;4.97;;;9.90;99.90;;;;;;4972495;28;20531;-78
2020/12/19 10:26:49;;;;;;;4.80;4.10;;;10.10;99.90;;;;;;4965586;28;20430;-78
2020/12/19 10:29:15;;;;;;;5.13;3.73;;;10.30;99.90;;;;;;4972300;28;20198;-77
2020/12/19 10:31:41;;;;;;;5.90;4.83;;;10.50;99.90;;;;;;4972917;28;20988;-77
2020/12/19 10:34:07;;;;;;;5.43;4.60;;;10.40;99.90;;;;;;4970858;28;21325;-78
2020/12/19 10:36:33;;;;;;;5.40;3.83;;;10.40;99.90;;;;;;4972714;28;20565;-78
2020/12/19 10:38:59;;;;;;;5.00;3.90;;;10.60;99.90;;;;;;4972628;28;20415;-78
2020/12/19 10:41:26;;;;;;;5.57;3.80;;;10.60;99.90;;;;;;4969072;28;20494;-78
2020/12/19 10:43:52;;;;;;;4.70;3.50;;;10.50;99.90;;;;;;4964592;28;20874;-78
2020/12/19 10:46:25;;;;;;;4.77;4.03;;;10.60;99.90;;;;;;4966204;28;20479;-77
2020/12/19 10:48:52;;;;;;;3.50;3.20;;;10.70;99.90;;;;;;4964131;28;20195;-78
2020/12/19 10:51:26;;;;;;;8.80;4.00;;;10.80;99.90;;;;;;4971657;28;20985;-78
2020/12/19 10:53:54;;;;;;;9.13;3.70;;;10.80;99.90;;;;;;4970478;28;20474;-78
2020/12/19 10:56:21;;;;;;;4.03;3.20;;;11.00;99.90;;;;;;4966303;28;20466;-78
2020/12/19 10:58:47;;;;;;;3.80;2.93;;;11.10;99.90;;;;;;4970839;28;20513;-77
2020/12/19 11:01:13;;;;;;;5.93;4.80;;;11.00;99.90;;;;;;4970444;28;20461;-78
2020/12/19 11:03:43;;;;;;;4.70;3.03;;;11.00;99.90;;;;;;4972091;28;20454;-77
2020/12/19 11:06:38;;;;;;;3.97;3.63;;;11.10;99.90;;;;;;4962820;28;20554;-77
2020/12/19 11:09:04;;;;;;;4.30;3.87;;;11.10;99.90;;;;;;4965623;28;20806;-77
2020/12/19 11:11:29;;;;;;;4.90;3.23;;;11.10;99.90;;;;;;4972201;28;20438;-78
2020/12/19 11:13:56;;;;;;;6.83;3.53;;;11.20;99.90;;;;;;4971735;28;20504;-77
2020/12/19 11:16:29;;;;;;;6.77;4.00;;;11.10;99.90;;;;;;4961761;28;20198;-77
2020/12/19 11:18:56;;;;;;;4.37;3.53;;;11.10;99.90;;;;;;4971776;28;20415;-78
2020/12/19 11:21:22;;;;;;;4.47;3.43;;;11.00;99.90;;;;;;4971141;28;20458;-78
2020/12/19 11:23:48;;;;;;;3.53;3.10;;;11.00;99.90;;;;;;4969408;28;20501;-77
2020/12/19 11:26:20;;;;;;;3.70;3.20;;;11.10;99.90;;;;;;4967196;28;20466;-77
2020/12/19 11:28:48;;;;;;;4.30;3.23;;;11.20;99.90;;;;;;4970854;28;20459;-77
2020/12/19 11:31:15;;;;;;;6.37;4.17;;;11.10;99.90;;;;;;4971670;28;20474;-78
2020/12/19 11:33:41;;;;;;;6.43;4.60;;;11.00;99.90;;;;;;4970997;28;20965;-78
2020/12/19 11:36:07;;;;;;;4.77;4.23;;;11.10;99.90;;;;;;4966377;28;20451;-78
2020/12/19 11:38:32;;;;;;;4.70;3.73;;;11.10;99.90;;;;;;4969061;28;20999;-78
2020/12/19 11:40:58;;;;;;;6.17;4.00;;;11.20;99.90;;;;;;4972161;28;20207;-78
2020/12/19 11:43:24;;;;;;;5.73;3.80;;;11.30;99.90;;;;;;4971836;28;20202;-78
2020/12/19 11:45:50;;;;;;;5.73;3.80;;;11.20;99.90;;;;;;4969355;28;20210;-78
2020/12/19 11:48:15;;;;;;;3.40;2.97;;;11.10;99.90;;;;;;4968459;28;20171;-78
2020/12/19 11:50:41;;;;;;;3.57;3.00;;;11.20;99.90;;;;;;4983629;28;20547;-75
2020/12/19 11:53:07;;;;;;;4.77;3.70;;;11.40;99.90;;;;;;4984047;28;20435;-76
2020/12/19 11:55:33;;;;;;;4.50;2.90;;;11.30;99.90;;;;;;4982816;28;20465;-76
2020/12/19 11:57:59;;;;;;;4.10;3.07;;;11.30;99.90;;;;;;4979349;28;20431;-76
2020/12/19 12:00:25;;;;;;;4.30;3.20;;;11.20;99.90;;;;;;5015113;28;20226;-76
2020/12/19 12:02:51;;;;;;;5.83;3.10;;;11.20;99.90;;;;;;4984460;28;20442;-77
2020/12/19 12:05:18;;;;;;;6.60;3.20;;;11.30;99.90;;;;;;4986674;28;20488;-76
2020/12/19 12:07:44;;;;;;;3.50;3.17;;;11.40;99.90;;;;;;4982344;28;20542;-77
2020/12/19 12:10:09;;;;;;;4.27;2.50;;;11.50;99.90;;;;;;4985628;28;20475;-75
2020/12/19 12:12:37;;;;;;;4.83;2.83;;;11.50;99.90;;;;;;4985631;28;20518;-76
2020/12/19 12:15:03;;;;;;;5.17;2.87;;;11.30;99.90;;;;;;4977395;28;20830;-76
2020/12/19 12:17:29;;;;;;;2.47;2.20;;;11.30;99.90;;;;;;4979160;28;20447;-77
2020/12/19 12:19:55;;;;;;;3.33;2.70;;;11.40;99.90;;;;;;4979053;28;21009;-75
2020/12/19 12:22:20;;;;;;;4.10;2.80;;;11.50;99.90;;;;;;4976056;28;20512;-76
2020/12/19 12:24:46;;;;;;;5.70;2.90;;;11.50;99.90;;;;;;4972042;28;20614;-76
2020/12/19 12:27:12;;;;;;;3.37;2.33;;;11.50;99.90;;;;;;5003901;28;20186;-76
2020/12/19 12:29:37;;;;;;;3.10;2.60;;;11.70;99.90;;;;;;4976893;28;20794;-76
2020/12/19 12:32:05;;;;;;;4.07;2.83;;;11.70;99.90;;;;;;4974411;28;20234;-76
2020/12/19 12:34:31;;;;;;;6.07;3.87;;;11.60;99.90;;;;;;4968017;28;20274;-76
2020/12/19 12:36:56;;;;;;;2.93;2.70;;;11.60;99.90;;;;;;4972056;28;20805;-77
2020/12/19 12:39:22;;;;;;;3.43;3.13;;;11.70;99.90;;;;;;4982398;28;20567;-77
2020/12/19 12:41:48;;;;;;;4.57;3.90;;;11.70;99.90;;;;;;4984831;28;20213;-76
2020/12/19 12:44:13;;;;;;;5.67;3.90;;;11.70;99.90;;;;;;4985743;28;20235;-77
2020/12/19 12:46:42;;;;;;;3.67;2.67;;;11.70;99.90;;;;;;4976760;28;20265;-76